sensor_id;sensor_type;location;lat;lon;timestamp;pressure;altitude;pressure_sealevel;temperature;humidity
46174;BME280;31897;52.420;13.498;2022-07-29T00:01:22;101600;;;17.46918;22.87931
46174;BME280;31897;52.420;13.498;2022-07-29T00:04:23;101600;;;17.43009;22.94697
46174;BME280;31897;52.420;13.498;2022-07-29T00:07:24;101600;;;17.38486;23.02088
46174;BME280;31897;52.420;13.498;2022-07-29T00:10:24;101600;;;17.328;23.13124
46174;BME280;31897;52.420;13.498;2022-07-29T00:13:25;101600;;;17.25499;23.24225
46174;BME280;31897;52.420;13.498;2022-07-29T00:16:26;101600;;;17.20847;23.33412
46174;BME280;31897;52.420;13.498;2022-07-29T00:19:27;101600;;;17.1445;23.50461
46174;BME280;31897;52.420;13.498;2022-07-29T00:22:27;101600;;;17.11252;23.59583
46174;BME280;31897;52.420;13.498;2022-07-29T00:25:28;101600;;;17.0576;23.69397
46174;BME280;31897;52.420;13.498;2022-07-29T00:28:29;101600;;;16.9694;23.80542
46174;BME280;31897;52.420;13.498;2022-07-29T00:31:29;101600;;;16.93742;23.91454
46174;BME280;31897;52.420;13.498;2022-07-29T00:34:30;101600;;;16.90899;23.97558
46174;BME280;31897;52.420;13.498;2022-07-29T00:37:36;101600;;;16.84793;24.11577
46174;BME280;31897;52.420;13.498;2022-07-29T00:40:37;101600;;;16.79042;24.20789
46174;BME280;31897;52.420;13.498;2022-07-29T00:43:38;101600;;;16.72678;24.28825
46174;BME280;31897;52.420;13.498;2022-07-29T00:46:39;101600;;;16.6906;24.39144
46174;BME280;31897;52.420;13.498;2022-07-29T00:49:41;101600;;;16.62889;24.48364
46174;BME280;31897;52.420;13.498;2022-07-29T00:52:42;101600;;;16.55233;24.57041
46174;BME280;31897;52.420;13.498;2022-07-29T00:55:43;101600;;;16.50678;24.64398
46174;BME280;31897;52.420;13.498;2022-07-29T00:58:44;101500;;;16.46381;24.71743
46174;BME280;31897;52.420;13.498;2022-07-29T01:01:45;101500;;;16.43279;24.77845
46174;BME280;31897;52.420;13.498;2022-07-29T01:04:46;101500;;;16.56234;24.76146
46174;BME280;31897;52.420;13.498;2022-07-29T01:07:48;101500;;;16.70611;24.66613
46174;BME280;31897;52.420;13.498;2022-07-29T01:10:49;101500;;;16.94;24.44741
46174;BME280;31897;52.420;13.498;2022-07-29T01:13:56;101500;;;17.06341;24.41858
46174;BME280;31897;52.420;13.498;2022-07-29T01:17:00;101500;;;17.10024;24.42311
46174;BME280;31897;52.420;13.498;2022-07-29T01:20:03;101500;;;17.28504;24.33188
46174;BME280;31897;52.420;13.498;2022-07-29T01:26:31;101500;;;17.1206;24.4283
46174;BME280;31897;52.420;13.498;2022-07-29T01:29:34;101500;;;17.05534;24.46682
46174;BME280;31897;52.420;13.498;2022-07-29T01:32:37;101500;;;17.01172;24.5464
46174;BME280;31897;52.420;13.498;2022-07-29T01:35:39;101500;;;16.83275;24.67317
46174;BME280;31897;52.420;13.498;2022-07-29T01:41:43;101500;;;16.43312;25.01766
46174;BME280;31897;52.420;13.498;2022-07-29T01:44:50;101500;;;16.22313;25.27671
46174;BME280;31897;52.420;13.498;2022-07-29T01:47:56;101500;;;16.05643;25.49207
46174;BME280;31897;52.420;13.498;2022-07-29T01:51:02;101500;;;15.944;25.65151
46174;BME280;31897;52.420;13.498;2022-07-29T01:54:04;101500;;;15.81058;25.85939
46174;BME280;31897;52.420;13.498;2022-07-29T01:57:07;101500;;;15.75889;25.96871
46174;BME280;31897;52.420;13.498;2022-07-29T02:00:10;101500;;;15.70009;26.06035
46174;BME280;31897;52.420;13.498;2022-07-29T02:03:11;101500;;;15.64388;26.18171
46174;BME280;31897;52.420;13.498;2022-07-29T02:06:13;101500;;;15.60899;26.25455
46174;BME280;31897;52.420;13.498;2022-07-29T02:09:17;101500;;;15.57055;26.35137
46174;BME280;31897;52.420;13.498;2022-07-29T02:12:19;101500;;;15.79346;26.31374
46174;BME280;31897;52.420;13.498;2022-07-29T02:15:22;101500;;;15.85613;26.2399
46174;BME280;31897;52.420;13.498;2022-07-29T02:18:24;101500;;;15.91622;26.2139
46174;BME280;31897;52.420;13.498;2022-07-29T02:21:28;101500;;;15.77634;26.39195
46174;BME280;31897;52.420;13.498;2022-07-29T02:24:30;101500;;;15.71722;26.51934
46174;BME280;31897;52.420;13.498;2022-07-29T02:27:31;101500;;;15.67037;26.56273
46174;BME280;31897;52.420;13.498;2022-07-29T02:30:34;101500;;;15.81123;26.48028
46174;BME280;31897;52.420;13.498;2022-07-29T02:33:37;101500;;;15.74855;26.56601
46174;BME280;31897;52.420;13.498;2022-07-29T02:36:39;101500;;;15.66488;26.70017
46174;BME280;31897;52.420;13.498;2022-07-29T02:39:41;101500;;;15.66811;26.77764
46174;BME280;31897;52.420;13.498;2022-07-29T02:42:49;101500;;;15.63613;26.82646
46174;BME280;31897;52.420;13.498;2022-07-29T02:45:51;101500;;;15.58056;26.95959
46174;BME280;31897;52.420;13.498;2022-07-29T02:48:55;101500;;;15.53953;27.04449
46174;BME280;31897;52.420;13.498;2022-07-29T02:51:58;101500;;;15.51466;27.08109
46174;BME280;31897;52.420;13.498;2022-07-29T02:55:02;101500;;;15.47331;27.15403
46174;BME280;31897;52.420;13.498;2022-07-29T02:58:10;101500;;;15.46588;27.19602
46174;BME280;31897;52.420;13.498;2022-07-29T03:01:14;101500;;;15.47201;27.17197
46174;BME280;31897;52.420;13.498;2022-07-29T03:04:16;101500;;;15.45586;27.2381
46174;BME280;31897;52.420;13.498;2022-07-29T03:07:19;101500;;;15.45037;27.25021
46174;BME280;31897;52.420;13.498;2022-07-29T03:10:21;101500;;;15.44326;27.31604
46174;BME280;31897;52.420;13.498;2022-07-29T03:13:22;101500;;;15.43099;27.34625
46174;BME280;31897;52.420;13.498;2022-07-29T03:16:23;101500;;;15.44132;27.3817
46174;BME280;31897;52.420;13.498;2022-07-29T03:19:25;101500;;;15.43422;27.40578
46174;BME280;31897;52.420;13.498;2022-07-29T03:22:26;101500;;;15.43454;27.45944
46174;BME280;31897;52.420;13.498;2022-07-29T03:25:27;101500;;;15.43938;27.48313
46174;BME280;31897;52.420;13.498;2022-07-29T03:28:28;101500;;;15.42129;27.50759
46174;BME280;31897;52.420;13.498;2022-07-29T03:31:29;101500;;;15.42485;27.50149
46174;BME280;31897;52.420;13.498;2022-07-29T03:34:30;101500;;;15.40514;27.52598
46174;BME280;31897;52.420;13.498;2022-07-29T03:37:31;101500;;;15.3948;27.52035
46174;BME280;31897;52.420;13.498;2022-07-29T03:40:32;101500;;;15.38446;27.56838
46174;BME280;31897;52.420;13.498;2022-07-29T03:43:34;101500;;;15.40159;27.59168
46174;BME280;31897;52.420;13.498;2022-07-29T03:46:36;101500;;;15.40449;27.62736
46174;BME280;31897;52.420;13.498;2022-07-29T03:49:38;101500;;;15.38026;27.80103
46174;BME280;31897;52.420;13.498;2022-07-29T03:55:41;101500;;;15.90717;27.29489
46174;BME280;31897;52.420;13.498;2022-07-29T03:58:43;101400;;;15.86518;27.2903
46174;BME280;31897;52.420;13.498;2022-07-29T04:01:44;101500;;;15.79378;27.33442
46174;BME280;31897;52.420;13.498;2022-07-29T04:04:46;101500;;;15.71269;27.39673
46174;BME280;31897;52.420;13.498;2022-07-29T04:07:47;101500;;;15.66973;27.41007
46174;BME280;31897;52.420;13.498;2022-07-29T04:10:48;101500;;;15.63193;27.48885
46174;BME280;31897;52.420;13.498;2022-07-29T04:13:49;101500;;;15.64033;27.48861
46174;BME280;31897;52.420;13.498;2022-07-29T04:16:49;101500;;;15.64259;27.54219
46174;BME280;31897;52.420;13.498;2022-07-29T04:19:50;101500;;;15.78118;27.52579
46174;BME280;31897;52.420;13.498;2022-07-29T04:22:51;101500;;;15.86356;27.4157
46174;BME280;31897;52.420;13.498;2022-07-29T04:25:52;101500;;;15.96468;27.39449
46174;BME280;31897;52.420;13.498;2022-07-29T04:28:52;101500;;;16.02445;27.3388
46174;BME280;31897;52.420;13.498;2022-07-29T04:31:53;101500;;;16.00829;27.41098
46174;BME280;31897;52.420;13.498;2022-07-29T04:34:54;101500;;;16.01895;27.40466
46174;BME280;31897;52.420;13.498;2022-07-29T04:37:55;101500;;;16.03898;27.3622
46174;BME280;31897;52.420;13.498;2022-07-29T04:49:57;101500;;;16.34201;27.27459
46174;BME280;31897;52.420;13.498;2022-07-29T04:52:57;101500;;;16.37949;27.20165
46174;BME280;31897;52.420;13.498;2022-07-29T04:55:58;101500;;;16.28386;27.26457
46174;BME280;31897;52.420;13.498;2022-07-29T04:58:59;101500;;;16.28612;27.24657
46174;BME280;31897;52.420;13.498;2022-07-29T05:02:00;101500;;;16.28839;27.27039
46174;BME280;31897;52.420;13.498;2022-07-29T05:05:00;101500;;;16.50355;27.10188
46174;BME280;31897;52.420;13.498;2022-07-29T05:08:01;101500;;;16.49515;27.09616
46174;BME280;31897;52.420;13.498;2022-07-29T05:11:02;101500;;;16.58754;27.06319
46174;BME280;31897;52.420;13.498;2022-07-29T05:14:03;101500;;;16.80852;26.91817
46174;BME280;31897;52.420;13.498;2022-07-29T05:17:03;101500;;;16.78106;26.87723
46174;BME280;31897;52.420;13.498;2022-07-29T05:20:05;101500;;;16.7368;26.90267
46174;BME280;31897;52.420;13.498;2022-07-29T05:23:06;101500;;;16.90059;26.75348
46174;BME280;31897;52.420;13.498;2022-07-29T05:26:07;101500;;;16.98459;26.61294
46174;BME280;31897;52.420;13.498;2022-07-29T05:29:08;101500;;;16.89671;26.58009
46174;BME280;31897;52.420;13.498;2022-07-29T05:32:09;101500;;;16.82952;26.54653
46174;BME280;31897;52.420;13.498;2022-07-29T05:35:10;101500;;;16.699;26.58695
46174;BME280;31897;52.420;13.498;2022-07-29T05:38:10;101500;;;16.6654;26.5941
46174;BME280;31897;52.420;13.498;2022-07-29T05:41:11;101500;;;16.83339;26.40877
46174;BME280;31897;52.420;13.498;2022-07-29T05:44:12;101500;;;17.00203;26.35496
46174;BME280;31897;52.420;13.498;2022-07-29T05:47:13;101500;;;17.31379;26.05641
46174;BME280;31897;52.420;13.498;2022-07-29T05:50:14;101500;;;17.61198;25.78187
46174;BME280;31897;52.420;13.498;2022-07-29T05:53:15;101500;;;17.63718;25.703
46174;BME280;31897;52.420;13.498;2022-07-29T05:56:16;101500;;;17.46918;25.79311
46174;BME280;31897;52.420;13.498;2022-07-29T05:59:16;101500;;;17.38389;25.8142
46174;BME280;31897;52.420;13.498;2022-07-29T06:02:17;101500;;;17.5044;25.64198
46174;BME280;31897;52.420;13.498;2022-07-29T06:08:18;101500;;;18.03746;25.2801
46174;BME280;31897;52.420;13.498;2022-07-29T06:11:19;101500;;;18.3224;25.01702
46174;BME280;31897;52.420;13.498;2022-07-29T06:14:20;101500;;;18.56406;24.71321
46174;BME280;31897;52.420;13.498;2022-07-29T06:17:21;101500;;;18.69619;24.49158
46174;BME280;31897;52.420;13.498;2022-07-29T06:20:21;101500;;;18.77018;24.34432
46174;BME280;31897;52.420;13.498;2022-07-29T06:23:22;101400;;;18.72075;24.40643
46174;BME280;31897;52.420;13.498;2022-07-29T06:26:23;101400;;;18.83382;24.26958
46174;BME280;31897;52.420;13.498;2022-07-29T06:29:24;101400;;;19.01442;24.11185
46174;BME280;31897;52.420;13.498;2022-07-29T06:35:25;101400;;;19.42957;23.77563
46174;BME280;31897;52.420;13.498;2022-07-29T06:38:26;101400;;;19.55944;23.57741
46174;BME280;31897;52.420;13.498;2022-07-29T06:44:47;101500;;;20.00948;23.14822
46174;BME280;31897;52.420;13.498;2022-07-29T06:47:47;101500;;;19.94358;23.16918
46174;BME280;31897;52.420;13.498;2022-07-29T06:50:48;101500;;;19.90707;23.19488
46174;BME280;31897;52.420;13.498;2022-07-29T06:53:54;101500;;;19.93098;23.15766
46174;BME280;31897;52.420;13.498;2022-07-29T06:56:55;101500;;;19.9817;23.01072
46174;BME280;31897;52.420;13.498;2022-07-29T06:59:55;101500;;;20.06085;22.97709
46174;BME280;31897;52.420;13.498;2022-07-29T07:03:00;101500;;;20.17263;22.85755
46174;BME280;31897;52.420;13.498;2022-07-29T07:06:01;101500;;;20.24985;22.66705
46174;BME280;31897;52.420;13.498;2022-07-29T07:12:02;101500;;;20.67599;22.32784
46174;BME280;31897;52.420;13.498;2022-07-29T07:15:04;101500;;;20.74513;22.22802
46174;BME280;31897;52.420;13.498;2022-07-29T07:18:06;101500;;;20.68439;22.17641
46174;BME280;31897;52.420;13.498;2022-07-29T07:21:08;101500;;;20.66468;22.16523
46174;BME280;31897;52.420;13.498;2022-07-29T07:33:56;101500;;;21.37028;21.55185
46174;BME280;31897;52.420;13.498;2022-07-29T07:36:56;101500;;;21.37739;21.42442
46174;BME280;31897;52.420;13.498;2022-07-29T07:39:57;101500;;;21.06917;21.60239
46174;BME280;31897;52.420;13.498;2022-07-29T07:42:58;101500;;;20.96385;21.74038
46174;BME280;31897;52.420;13.498;2022-07-29T07:45:59;101500;;;20.90666;21.66446
46174;BME280;31897;52.420;13.498;2022-07-29T07:49:00;101500;;;21.00843;21.58106
46174;BME280;31897;52.420;13.498;2022-07-29T07:52:00;101500;;;21.16577;21.53734
46174;BME280;31897;52.420;13.498;2022-07-29T07:55:01;101400;;;21.60161;21.23811
46174;BME280;31897;52.420;13.498;2022-07-29T07:58:02;101400;;;21.75313;20.97637
46174;BME280;31897;52.420;13.498;2022-07-29T08:01:03;101400;;;21.9305;20.85862
46174;BME280;31897;52.420;13.498;2022-07-29T08:04:04;101400;;;22.07977;20.80279
46174;BME280;31897;52.420;13.498;2022-07-29T08:07:04;101400;;;22.09172;20.86889
46174;BME280;31897;52.420;13.498;2022-07-29T08:10:05;101400;;;22.35406;20.63753
46174;BME280;31897;52.420;13.498;2022-07-29T08:13:07;101400;;;22.40382;20.65333
46174;BME280;31897;52.420;13.498;2022-07-29T08:16:12;101400;;;22.41771;20.56162
46174;BME280;31897;52.420;13.498;2022-07-29T08:19:13;101400;;;22.67553;20.42124
46174;BME280;31897;52.420;13.498;2022-07-29T08:22:14;101400;;;22.66132;20.38553
46174;BME280;31897;52.420;13.498;2022-07-29T08:25:15;101400;;;22.52239;20.34396
46174;BME280;31897;52.420;13.498;2022-07-29T08:28:15;101400;;;22.63935;20.19843
46174;BME280;31897;52.420;13.498;2022-07-29T08:31:16;101400;;;22.65227;20.13098
46174;BME280;31897;52.420;13.498;2022-07-29T08:34:17;101400;;;22.61835;20.12057
46174;BME280;31897;52.420;13.498;2022-07-29T08:37:18;101400;;;22.6261;20.08374
46174;BME280;31897;52.420;13.498;2022-07-29T08:40:19;101400;;;22.75566;19.90101
46174;BME280;31897;52.420;13.498;2022-07-29T08:43:20;101400;;;23.04223;19.57629
46174;BME280;31897;52.420;13.498;2022-07-29T08:46:21;101400;;;23.1747;19.39305
46174;BME280;31897;52.420;13.498;2022-07-29T08:49:22;101400;;;23.19667;19.23988
46174;BME280;31897;52.420;13.498;2022-07-29T08:52:23;101400;;;23.16727;19.18672
46174;BME280;31897;52.420;13.498;2022-07-29T08:55:25;101400;;;23.2713;19.19335
46174;BME280;31897;52.420;13.498;2022-07-29T08:58:26;101400;;;23.46192;19.24405
46174;BME280;31897;52.420;13.498;2022-07-29T09:01:27;101400;;;23.41637;19.18564
46174;BME280;31897;52.420;13.498;2022-07-29T09:04:30;101400;;;23.59665;19.05432
46174;BME280;31897;52.420;13.498;2022-07-29T09:07:36;101400;;;23.55659;19.09297
46174;BME280;31897;52.420;13.498;2022-07-29T09:10:46;101400;;;23.68485;18.93393
46174;BME280;31897;52.420;13.498;2022-07-29T09:13:56;101400;;;23.99534;18.67351
46174;BME280;31897;52.420;13.498;2022-07-29T09:16:57;101400;;;24.35849;18.40979
46174;BME280;31897;52.420;13.498;2022-07-29T09:19:58;101400;;;24.68158;18.09294
46174;BME280;31897;52.420;13.498;2022-07-29T09:23:08;101400;;;24.94264;17.79132
46174;BME280;31897;52.420;13.498;2022-07-29T09:26:09;101400;;;25.20111;17.53831
46174;BME280;31897;52.420;13.498;2022-07-29T09:29:10;101400;;;25.40402;17.21493
46174;BME280;31897;52.420;13.498;2022-07-29T09:32:12;101400;;;25.42599;17.07303
46174;BME280;31897;52.420;13.498;2022-07-29T09:35:14;101400;;;25.52162;16.89009
46174;BME280;31897;52.420;13.498;2022-07-29T09:38:15;101400;;;25.55716;16.65558
46174;BME280;31897;52.420;13.498;2022-07-29T09:41:16;101400;;;25.60918;16.47509
46174;BME280;31897;52.420;13.498;2022-07-29T09:44:17;101400;;;25.52065;16.1929
46174;BME280;31897;52.420;13.498;2022-07-29T09:50:18;101400;;;25.72097;16.04004
46174;BME280;31897;52.420;13.498;2022-07-29T09:53:36;101400;;;25.80271;15.81471
46174;BME280;31897;52.420;13.498;2022-07-29T09:56:38;101400;;;26.20141;15.43487
46174;BME280;31897;52.420;13.498;2022-07-29T09:59:39;101400;;;26.24374;15.11358
46174;BME280;31897;52.420;13.498;2022-07-29T10:02:40;101400;;;26.10739;14.96899
46174;BME280;31897;52.420;13.498;2022-07-29T10:05:42;101400;;;26.21757;14.9804
46174;BME280;31897;52.420;13.498;2022-07-29T10:08:43;101400;;;26.6615;14.60874
46174;BME280;31897;52.420;13.498;2022-07-29T10:11:43;101400;;;27.7678;13.94089
46174;BME280;31897;52.420;13.498;2022-07-29T10:15:02;101400;;;27.14389;14.0741
46174;BME280;31897;52.420;13.498;2022-07-29T10:18:12;101400;;;26.78202;14.34326
46174;BME280;31897;52.420;13.498;2022-07-29T10:21:13;101400;;;26.85504;14.22191
46174;BME280;31897;52.420;13.498;2022-07-29T10:24:14;101400;;;26.5426;14.39557
46174;BME280;31897;52.420;13.498;2022-07-29T10:27:15;101400;;;26.37298;14.57207
46174;BME280;31897;52.420;13.498;2022-07-29T10:30:15;101400;;;26.32677;14.57502
46174;BME280;31897;52.420;13.498;2022-07-29T10:33:21;101400;;;26.32031;14.56932
46174;BME280;31897;52.420;13.498;2022-07-29T10:36:34;101400;;;26.29867;14.62588
46174;BME280;31897;52.420;13.498;2022-07-29T10:39:41;101400;;;26.25085;14.53088
46174;BME280;31897;52.420;13.498;2022-07-29T10:42:45;101400;;;26.44987;14.561
46174;BME280;31897;52.420;13.498;2022-07-29T10:45:47;101400;;;26.69931;14.35476
46174;BME280;31897;52.420;13.498;2022-07-29T10:49:04;101300;;;26.99526;14.14524
46174;BME280;31897;52.420;13.498;2022-07-29T10:52:06;101300;;;27.09349;14.24936
46174;BME280;31897;52.420;13.498;2022-07-29T10:55:08;101300;;;27.70059;13.99452
46174;BME280;31897;52.420;13.498;2022-07-29T10:58:10;101400;;;27.99752;13.7288
46174;BME280;31897;52.420;13.498;2022-07-29T11:01:28;101400;;;27.85762;13.47354
46174;BME280;31897;52.420;13.498;2022-07-29T11:08:18;101300;;;27.81594;13.544
46174;BME280;31897;52.420;13.498;2022-07-29T11:14:57;101300;;;27.6573;13.6776
46174;BME280;31897;52.420;13.498;2022-07-29T11:18:03;101300;;;27.70544;13.68055
46174;BME280;31897;52.420;13.498;2022-07-29T11:21:04;101300;;;27.8867;13.61926
46174;BME280;31897;52.420;13.498;2022-07-29T11:24:11;101300;;;28.30253;13.64075
46174;BME280;31897;52.420;13.498;2022-07-29T11:27:13;101300;;;28.37749;13.68502
46174;BME280;31897;52.420;13.498;2022-07-29T11:30:14;101300;;;28.38912;13.80743
46174;BME280;31897;52.420;13.498;2022-07-29T11:33:31;101300;;;28.42079;13.79301
46174;BME280;31897;52.420;13.498;2022-07-29T11:36:32;101300;;;28.34971;13.87164
46174;BME280;31897;52.420;13.498;2022-07-29T11:39:33;101300;;;28.33937;14.00165
46174;BME280;31897;52.420;13.498;2022-07-29T11:42:38;101300;;;28.30092;13.98571
46174;BME280;31897;52.420;13.498;2022-07-29T11:45:46;101300;;;28.40269;14.12065
46174;BME280;31897;52.420;13.498;2022-07-29T11:48:46;101300;;;28.47378;14.16525
46174;BME280;31897;52.420;13.498;2022-07-29T11:51:50;101300;;;28.43533;14.1308
46174;BME280;31897;52.420;13.498;2022-07-29T11:54:51;101300;;;28.46538;14.09805
46174;BME280;31897;52.420;13.498;2022-07-29T11:57:52;101300;;;28.60367;14.10743
46174;BME280;31897;52.420;13.498;2022-07-29T12:00:53;101300;;;28.7006;14.07023
46174;BME280;31897;52.420;13.498;2022-07-29T12:04:01;101300;;;28.98267;13.92828
46174;BME280;31897;52.420;13.498;2022-07-29T12:07:02;101300;;;28.92839;13.96271
46174;BME280;31897;52.420;13.498;2022-07-29T12:10:04;101300;;;29.00949;14.04984
46174;BME280;31897;52.420;13.498;2022-07-29T12:13:05;101300;;;29.24374;14.02201
46174;BME280;31897;52.420;13.498;2022-07-29T12:16:06;101300;;;29.21983;14.10997
46174;BME280;31897;52.420;13.498;2022-07-29T12:19:07;101300;;;29.17039;14.03303
46174;BME280;31897;52.420;13.498;2022-07-29T12:22:07;101300;;;29.42048;13.97944
46174;BME280;31897;52.420;13.498;2022-07-29T12:25:09;101300;;;29.64278;13.94616
46174;BME280;31897;52.420;13.498;2022-07-29T12:28:11;101300;;;29.55554;13.86551
46174;BME280;31897;52.420;13.498;2022-07-29T12:31:12;101300;;;29.70643;13.65779
46174;BME280;31897;52.420;13.498;2022-07-29T12:34:15;101300;;;29.93293;13.50662
46174;BME280;31897;52.420;13.498;2022-07-29T12:37:16;101300;;;30.50483;13.28848
46174;BME280;31897;52.420;13.498;2022-07-29T12:40:18;101300;;;30.94911;13.01654
46174;BME280;31897;52.420;13.498;2022-07-29T12:43:22;101300;;;30.96107;12.91664
46174;BME280;31897;52.420;13.498;2022-07-29T12:46:23;101300;;;31.14072;12.6935
46174;BME280;31897;52.420;13.498;2022-07-29T12:52:25;101300;;;30.67382;12.94884
46174;BME280;31897;52.420;13.498;2022-07-29T12:55:42;101300;;;30.45023;13.08801
46174;BME280;31897;52.420;13.498;2022-07-29T12:58:42;101300;;;30.25378;13.23754
46174;BME280;31897;52.420;13.498;2022-07-29T13:01:43;101300;;;30.09319;13.34123
46174;BME280;31897;52.420;13.498;2022-07-29T13:04:44;101300;;;30.00821;13.42736
46174;BME280;31897;52.420;13.498;2022-07-29T13:07:55;101300;;;29.91289;13.42145
46174;BME280;31897;52.420;13.498;2022-07-29T13:11:26;101300;;;29.81144;13.49628
46174;BME280;31897;52.420;13.498;2022-07-29T13:14:31;101300;;;29.92388;13.43306
46174;BME280;31897;52.420;13.498;2022-07-29T13:17:33;101300;;;30.13875;13.13407
46174;BME280;31897;52.420;13.498;2022-07-29T13:20:40;101200;;;30.48415;12.98047
46174;BME280;31897;52.420;13.498;2022-07-29T13:23:41;101200;;;30.36396;13.01968
46174;BME280;31897;52.420;13.498;2022-07-29T13:26:42;101200;;;30.74491;12.90679
46174;BME280;31897;52.420;13.498;2022-07-29T13:29:43;101200;;;31.23345;12.80483
46174;BME280;31897;52.420;13.498;2022-07-29T13:32:43;101200;;;31.40373;12.64418
46174;BME280;31897;52.420;13.498;2022-07-29T13:35:44;101200;;;31.43701;12.56123
46174;BME280;31897;52.420;13.498;2022-07-29T13:38:45;101200;;;31.59825;12.35761
46174;BME280;31897;52.420;13.498;2022-07-29T13:41:45;101200;;;31.21956;12.45245
46174;BME280;31897;52.420;13.498;2022-07-29T13:44:46;101200;;;30.68093;12.50255
46174;BME280;31897;52.420;13.498;2022-07-29T13:47:47;101200;;;30.28576;12.81472
46174;BME280;31897;52.420;13.498;2022-07-29T13:50:48;101200;;;30.26476;12.80998
46174;BME280;31897;52.420;13.498;2022-07-29T13:53:48;101200;;;30.17364;12.90905
46174;BME280;31897;52.420;13.498;2022-07-29T13:56:49;101200;;;30.67479;12.57728
46174;BME280;31897;52.420;13.498;2022-07-29T13:59:50;101200;;;30.73553;12.53589
46174;BME280;31897;52.420;13.498;2022-07-29T14:02:51;101200;;;30.44053;12.56899
46174;BME280;31897;52.420;13.498;2022-07-29T14:05:52;101200;;;30.76041;12.24926
46174;BME280;31897;52.420;13.498;2022-07-29T14:08:52;101200;;;30.80048;12.37651
46174;BME280;31897;52.420;13.498;2022-07-29T14:11:53;101200;;;30.72293;12.41911
46174;BME280;31897;52.420;13.498;2022-07-29T14:17:54;101200;;;31.28644;12.05091
46174;BME280;31897;52.420;13.498;2022-07-29T14:20:55;101200;;;31.02957;12.25507
46174;BME280;31897;52.420;13.498;2022-07-29T14:23:57;101200;;;30.94103;12.26751
46174;BME280;31897;52.420;13.498;2022-07-29T14:26:59;101200;;;30.90485;12.27625
46174;BME280;31897;52.420;13.498;2022-07-29T14:29:59;101200;;;30.65153;12.34362
46174;BME280;31897;52.420;13.498;2022-07-29T14:33:00;101200;;;30.78594;12.22888
46174;BME280;31897;52.420;13.498;2022-07-29T14:36:01;101200;;;31.30648;11.98128
46174;BME280;31897;52.420;13.498;2022-07-29T14:39:02;101200;;;31.68323;11.80547
46174;BME280;31897;52.420;13.498;2022-07-29T14:42:03;101200;;;32.07743;11.62188
46174;BME280;31897;52.420;13.498;2022-07-29T14:45:04;101200;;;32.60443;11.31635
46174;BME280;31897;52.420;13.498;2022-07-29T14:48:05;101200;;;32.6962;11.16656
46174;BME280;31897;52.420;13.498;2022-07-29T14:51:06;101200;;;32.60314;11.2418
46174;BME280;31897;52.420;13.498;2022-07-29T14:54:07;101200;;;32.51525;11.21713
46174;BME280;31897;52.420;13.498;2022-07-29T14:57:07;101200;;;32.50233;11.09992
46174;BME280;31897;52.420;13.498;2022-07-29T15:00:09;101200;;;31.96886;11.43096
46174;BME280;31897;52.420;13.498;2022-07-29T15:03:10;101200;;;31.56303;11.51622
46174;BME280;31897;52.420;13.498;2022-07-29T15:06:11;101200;;;31.40244;11.57754
46174;BME280;31897;52.420;13.498;2022-07-29T15:12:12;101200;;;31.47029;11.57876
46174;BME280;31897;52.420;13.498;2022-07-29T15:15:19;101200;;;31.8044;11.34975
46174;BME280;31897;52.420;13.498;2022-07-29T15:18:20;101200;;;31.93203;11.24731
46174;BME280;31897;52.420;13.498;2022-07-29T15:21:20;101200;;;32.1427;11.15736
46174;BME280;31897;52.420;13.498;2022-07-29T15:24:21;101200;;;32.22639;11.08287
46174;BME280;31897;52.420;13.498;2022-07-29T15:27:22;101200;;;32.45871;10.92279
46174;BME280;31897;52.420;13.498;2022-07-29T15:30:22;101200;;;32.66389;10.8952
46174;BME280;31897;52.420;13.498;2022-07-29T15:33:23;101200;;;32.58376;10.85135
46174;BME280;31897;52.420;13.498;2022-07-29T15:36:24;101200;;;32.42737;10.91888
46174;BME280;31897;52.420;13.498;2022-07-29T15:39:25;101200;;;32.23673;10.93294
46174;BME280;31897;52.420;13.498;2022-07-29T15:42:26;101200;;;31.67644;11.18543
46174;BME280;31897;52.420;13.498;2022-07-29T15:45:26;101200;;;31.43734;11.32057
46174;BME280;31897;52.420;13.498;2022-07-29T15:48:27;101200;;;31.12327;11.48596
46174;BME280;31897;52.420;13.498;2022-07-29T15:51:28;101200;;;30.88481;11.67048
46174;BME280;31897;52.420;13.498;2022-07-29T15:54:29;101200;;;30.87964;11.68944
46174;BME280;31897;52.420;13.498;2022-07-29T15:57:30;101200;;;31.07836;11.64418
46174;BME280;31897;52.420;13.498;2022-07-29T16:00:30;101200;;;31.05736;11.6147
46174;BME280;31897;52.420;13.498;2022-07-29T16:03:31;101200;;;31.21697;11.5226
46174;BME280;31897;52.420;13.498;2022-07-29T16:06:32;101100;;;31.32554;11.6016